sensor_id;sensor_type;location;lat;lon;timestamp;pressure;altitude;pressure_sealevel;temperature;humidity
17309;BME280;8772;42.804;23.426;2022-10-16T00:00:41;95279.50;;;7.93;100.00
17309;BME280;8772;42.804;23.426;2022-10-16T00:03:09;95281.75;;;7.91;100.00
17309;BME280;8772;42.804;23.426;2022-10-16T00:05:39;95279.50;;;7.93;100.00
17309;BME280;8772;42.804;23.426;2022-10-16T00:08:07;95284.41;;;7.91;100.00
17309;BME280;8772;42.804;23.426;2022-10-16T00:10:35;95295.06;;;7.94;100.00
17309;BME280;8772;42.804;23.426;2022-10-16T00:13:03;95290.88;;;7.90;100.00
17309;BME280;8772;42.804;23.426;2022-10-16T00:15:30;95284.03;;;7.89;100.00
17309;BME280;8772;42.804;23.426;2022-10-16T00:17:59;95290.53;;;7.98;100.00
17309;BME280;8772;42.804;23.426;2022-10-16T00:20:26;95289.00;;;7.94;100.00
17309;BME280;8772;42.804;23.426;2022-10-16T00:22:53;95293.94;;;7.92;100.00
17309;BME280;8772;42.804;23.426;2022-10-16T00:25:19;95294.69;;;7.89;100.00
17309;BME280;8772;42.804;23.426;2022-10-16T00:27:48;95300.03;;;7.96;100.00
17309;BME280;8772;42.804;23.426;2022-10-16T00:30:15;95296.63;;;7.92;100.00
17309;BME280;8772;42.804;23.426;2022-10-16T00:32:42;95308.00;;;7.89;100.00
17309;BME280;8772;42.804;23.426;2022-10-16T00:35:09;95305.72;;;7.91;100.00
17309;BME280;8772;42.804;23.426;2022-10-16T00:37:36;95307.59;;;7.80;100.00
17309;BME280;8772;42.804;23.426;2022-10-16T00:40:03;95307.19;;;7.78;100.00
17309;BME280;8772;42.804;23.426;2022-10-16T00:42:30;95304.19;;;7.83;100.00
17309;BME280;8772;42.804;23.426;2022-10-16T00:44:59;95304.94;;;7.80;100.00
17309;BME280;8772;42.804;23.426;2022-10-16T00:47:29;95299.63;;;7.80;100.00
17309;BME280;8772;42.804;23.426;2022-10-16T00:50:02;95294.28;;;7.80;100.00
17309;BME280;8772;42.804;23.426;2022-10-16T00:52:31;95298.47;;;7.77;100.00
17309;BME280;8772;42.804;23.426;2022-10-16T00:54:58;95301.84;;;7.71;100.00
17309;BME280;8772;42.804;23.426;2022-10-16T00:57:26;95298.75;;;7.58;100.00
17309;BME280;8772;42.804;23.426;2022-10-16T00:59:54;95304.09;;;7.55;100.00
17309;BME280;8772;42.804;23.426;2022-10-16T01:02:22;95307.84;;;7.54;100.00
17309;BME280;8772;42.804;23.426;2022-10-16T01:08:13;95322.28;;;7.53;100.00
17309;BME280;8772;42.804;23.426;2022-10-16T01:10:51;95323.03;;;7.50;100.00
17309;BME280;8772;42.804;23.426;2022-10-16T01:13:23;95320.03;;;7.51;100.00
17309;BME280;8772;42.804;23.426;2022-10-16T01:15:55;95316.97;;;7.53;100.00
17309;BME280;8772;42.804;23.426;2022-10-16T01:18:30;95321.53;;;7.49;100.00
17309;BME280;8772;42.804;23.426;2022-10-16T01:21:02;95311.25;;;7.47;100.00
17309;BME280;8772;42.804;23.426;2022-10-16T01:23:38;95304.75;;;7.38;100.00
17309;BME280;8772;42.804;23.426;2022-10-16T01:26:15;95297.13;;;7.40;100.00
17309;BME280;8772;42.804;23.426;2022-10-16T01:28:51;95297.91;;;7.37;100.00
17309;BME280;8772;42.804;23.426;2022-10-16T01:31:22;95300.88;;;7.25;100.00
17309;BME280;8772;42.804;23.426;2022-10-16T01:33:54;95302.38;;;7.22;100.00
17309;BME280;8772;42.804;23.426;2022-10-16T01:36:26;95304.66;;;7.24;100.00
17309;BME280;8772;42.804;23.426;2022-10-16T01:39:00;95306.56;;;7.20;100.00
17309;BME280;8772;42.804;23.426;2022-10-16T01:41:35;95312.94;;;7.05;100.00
17309;BME280;8772;42.804;23.426;2022-10-16T01:44:08;95314.03;;;7.00;100.00
17309;BME280;8772;42.804;23.426;2022-10-16T01:46:39;95314.72;;;6.90;100.00
17309;BME280;8772;42.804;23.426;2022-10-16T01:49:06;95318.22;;;7.01;100.00
17309;BME280;8772;42.804;23.426;2022-10-16T01:51:37;95323.56;;;7.05;100.00
17309;BME280;8772;42.804;23.426;2022-10-16T01:54:05;95327.31;;;7.04;100.00
17309;BME280;8772;42.804;23.426;2022-10-16T01:56:35;95326.53;;;7.00;100.00
17309;BME280;8772;42.804;23.426;2022-10-16T01:59:08;95332.66;;;7.07;100.00
17309;BME280;8772;42.804;23.426;2022-10-16T02:01:39;95333.84;;;7.10;100.00
17309;BME280;8772;42.804;23.426;2022-10-16T02:04:11;95331.03;;;6.89;100.00
17309;BME280;8772;42.804;23.426;2022-10-16T02:06:40;95335.28;;;6.97;100.00
17309;BME280;8772;42.804;23.426;2022-10-16T02:09:07;95329.94;;;6.97;100.00
17309;BME280;8772;42.804;23.426;2022-10-16T02:11:35;95338.63;;;6.90;100.00
17309;BME280;8772;42.804;23.426;2022-10-16T02:14:04;95329.47;;;6.84;100.00
17309;BME280;8772;42.804;23.426;2022-10-16T02:16:35;95336.25;;;6.78;100.00
17309;BME280;8772;42.804;23.426;2022-10-16T02:19:03;95347.53;;;6.65;100.00
17309;BME280;8772;42.804;23.426;2022-10-16T02:21:34;95345.25;;;6.63;100.00
17309;BME280;8772;42.804;23.426;2022-10-16T02:24:09;95343.75;;;6.66;100.00
17309;BME280;8772;42.804;23.426;2022-10-16T02:26:43;95343.78;;;6.69;100.00
17309;BME280;8772;42.804;23.426;2022-10-16T02:29:16;95346.81;;;6.68;100.00
17309;BME280;8772;42.804;23.426;2022-10-16T02:31:48;95345.69;;;6.69;100.00
17309;BME280;8772;42.804;23.426;2022-10-16T02:34:16;95345.69;;;6.69;100.00
17309;BME280;8772;42.804;23.426;2022-10-16T02:36:46;95347.53;;;6.65;100.00
17309;BME280;8772;42.804;23.426;2022-10-16T02:39:15;95351.66;;;6.59;100.00
17309;BME280;8772;42.804;23.426;2022-10-16T02:41:42;95343.66;;;6.55;100.00
17309;BME280;8772;42.804;23.426;2022-10-16T02:44:10;95340.59;;;6.53;100.00
17309;BME280;8772;42.804;23.426;2022-10-16T02:46:37;95347.81;;;6.53;100.00
17309;BME280;8772;42.804;23.426;2022-10-16T02:49:05;95352.75;;;6.54;100.00
17309;BME280;8772;42.804;23.426;2022-10-16T02:51:32;95346.28;;;6.48;100.00
17309;BME280;8772;42.804;23.426;2022-10-16T02:53:59;95358.44;;;6.53;100.00
17309;BME280;8772;42.804;23.426;2022-10-16T02:56:25;95359.56;;;6.52;100.00
17309;BME280;8772;42.804;23.426;2022-10-16T02:58:52;95362.09;;;6.38;100.00
17309;BME280;8772;42.804;23.426;2022-10-16T03:01:19;95353.69;;;6.33;100.00
17309;BME280;8772;42.804;23.426;2022-10-16T03:03:46;95355.66;;;6.39;100.00
17309;BME280;8772;42.804;23.426;2022-10-16T03:06:15;95357.91;;;6.37;100.00
17309;BME280;8772;42.804;23.426;2022-10-16T03:08:41;95356.47;;;6.43;100.00
17309;BME280;8772;42.804;23.426;2022-10-16T03:11:08;95364.44;;;6.43;100.00
17309;BME280;8772;42.804;23.426;2022-10-16T03:13:35;95362.53;;;6.43;100.00
17309;BME280;8772;42.804;23.426;2022-10-16T03:16:02;95361.78;;;6.43;100.00
17309;BME280;8772;42.804;23.426;2022-10-16T03:18:29;95352.69;;;6.44;100.00
17309;BME280;8772;42.804;23.426;2022-10-16T03:20:56;95361.00;;;6.43;100.00
17309;BME280;8772;42.804;23.426;2022-10-16T03:23:24;95362.47;;;6.40;100.00
17309;BME280;8772;42.804;23.426;2022-10-16T03:25:51;95363.22;;;6.37;100.00
17309;BME280;8772;42.804;23.426;2022-10-16T03:28:19;95365.72;;;6.23;100.00
17309;BME280;8772;42.804;23.426;2022-10-16T03:30:46;95373.31;;;6.21;100.00
17309;BME280;8772;42.804;23.426;2022-10-16T03:33:13;95369.72;;;6.07;100.00
17309;BME280;8772;42.804;23.426;2022-10-16T03:35:40;95369.38;;;6.08;100.00
17309;BME280;8772;42.804;23.426;2022-10-16T03:38:06;95369.00;;;6.10;100.00
17309;BME280;8772;42.804;23.426;2022-10-16T03:40:35;95370.91;;;6.09;100.00
17309;BME280;8772;42.804;23.426;2022-10-16T03:43:02;95361.38;;;6.05;100.00
17309;BME280;8772;42.804;23.426;2022-10-16T03:45:28;95362.94;;;6.09;100.00
17309;BME280;8772;42.804;23.426;2022-10-16T03:47:55;95373.56;;;6.09;100.00
17309;BME280;8772;42.804;23.426;2022-10-16T03:50:22;95368.97;;;6.06;100.00
17309;BME280;8772;42.804;23.426;2022-10-16T03:52:49;95361.41;;;6.08;100.00
17309;BME280;8772;42.804;23.426;2022-10-16T03:55:16;95368.19;;;6.06;100.00
17309;BME280;8772;42.804;23.426;2022-10-16T03:57:44;95369.78;;;6.10;100.00
17309;BME280;8772;42.804;23.426;2022-10-16T04:00:12;95359.88;;;6.07;100.00
17309;BME280;8772;42.804;23.426;2022-10-16T04:02:39;95368.16;;;6.02;100.00
17309;BME280;8772;42.804;23.426;2022-10-16T04:05:06;95356.06;;;6.05;100.00
17309;BME280;8772;42.804;23.426;2022-10-16T04:07:33;95356.06;;;6.05;100.00
17309;BME280;8772;42.804;23.426;2022-10-16T04:10:00;95358.34;;;6.06;100.00
17309;BME280;8772;42.804;23.426;2022-10-16T04:12:27;95370.09;;;6.05;100.00
17309;BME280;8772;42.804;23.426;2022-10-16T04:14:55;95373.50;;;6.06;100.00
17309;BME280;8772;42.804;23.426;2022-10-16T04:17:22;95371.19;;;6.01;100.00
17309;BME280;8772;42.804;23.426;2022-10-16T04:19:49;95374.25;;;6.03;100.00
17309;BME280;8772;42.804;23.426;2022-10-16T04:22:16;95373.78;;;5.97;100.00
17309;BME280;8772;42.804;23.426;2022-10-16T04:24:43;95368.41;;;5.90;100.00
17309;BME280;8772;42.804;23.426;2022-10-16T04:27:10;95380.13;;;5.89;100.00
17309;BME280;8772;42.804;23.426;2022-10-16T04:29:37;95377.88;;;5.91;100.00
17309;BME280;8772;42.804;23.426;2022-10-16T04:32:05;95380.53;;;5.91;100.00
17309;BME280;8772;42.804;23.426;2022-10-16T04:34:32;95380.59;;;5.95;100.00
17309;BME280;8772;42.804;23.426;2022-10-16T04:36:58;95393.09;;;5.94;100.00
17309;BME280;8772;42.804;23.426;2022-10-16T04:39:25;95389.31;;;5.95;100.00
17309;BME280;8772;42.804;23.426;2022-10-16T04:41:52;95386.28;;;5.93;100.00
17309;BME280;8772;42.804;23.426;2022-10-16T04:44:19;95392.38;;;5.97;100.00
17309;BME280;8772;42.804;23.426;2022-10-16T04:46:46;95391.97;;;5.95;100.00
17309;BME280;8772;42.804;23.426;2022-10-16T04:49:14;95397.91;;;5.85;100.00
17309;BME280;8772;42.804;23.426;2022-10-16T04:51:41;95397.13;;;5.85;100.00
17309;BME280;8772;42.804;23.426;2022-10-16T04:54:08;95398.25;;;5.84;100.00
17309;BME280;8772;42.804;23.426;2022-10-16T04:56:35;95405.09;;;5.85;100.00
17309;BME280;8772;42.804;23.426;2022-10-16T04:59:09;95402.09;;;5.86;100.00
17309;BME280;8772;42.804;23.426;2022-10-16T05:01:36;95405.06;;;5.81;100.00
17309;BME280;8772;42.804;23.426;2022-10-16T05:04:02;95405.81;;;5.82;100.00
17309;BME280;8772;42.804;23.426;2022-10-16T05:06:31;95409.44;;;5.70;100.00
17309;BME280;8772;42.804;23.426;2022-10-16T05:08:58;95400.97;;;5.61;100.00
17309;BME280;8772;42.804;23.426;2022-10-16T05:11:24;95407.09;;;5.65;100.00
17309;BME280;8772;42.804;23.426;2022-10-16T05:13:51;95412.41;;;5.65;100.00
17309;BME280;8772;42.804;23.426;2022-10-16T05:16:18;95417.81;;;5.72;100.00
17309;BME280;8772;42.804;23.426;2022-10-16T05:18:45;95423.91;;;5.76;100.00
17309;BME280;8772;42.804;23.426;2022-10-16T05:21:12;95422.03;;;5.77;100.00
17309;BME280;8772;42.804;23.426;2022-10-16T05:23:40;95425.38;;;5.70;100.00
17309;BME280;8772;42.804;23.426;2022-10-16T05:26:07;95420.06;;;5.70;100.00
17309;BME280;8772;42.804;23.426;2022-10-16T05:28:34;95429.94;;;5.73;100.00
17309;BME280;8772;42.804;23.426;2022-10-16T05:31:04;95431.47;;;5.74;100.00
17309;BME280;8772;42.804;23.426;2022-10-16T05:33:31;95423.47;;;5.71;100.00
17309;BME280;8772;42.804;23.426;2022-10-16T05:36:01;95435.25;;;5.73;100.00
17309;BME280;8772;42.804;23.426;2022-10-16T05:38:28;95427.84;;;5.82;100.00
17309;BME280;8772;42.804;23.426;2022-10-16T05:40:56;95428.28;;;5.88;100.00
17309;BME280;8772;42.804;23.426;2022-10-16T05:43:23;95439.28;;;5.90;100.00
17309;BME280;8772;42.804;23.426;2022-10-16T05:45:54;95428.41;;;5.98;100.00
17309;BME280;8772;42.804;23.426;2022-10-16T05:48:21;95437.22;;;6.06;100.00
17309;BME280;8772;42.804;23.426;2022-10-16T05:50:56;95444.09;;;6.10;100.00
17309;BME280;8772;42.804;23.426;2022-10-16T05:53:23;95448.06;;;6.23;100.00
17309;BME280;8772;42.804;23.426;2022-10-16T05:55:56;95458.78;;;6.30;100.00
17309;BME280;8772;42.804;23.426;2022-10-16T05:58:23;95454.25;;;6.34;100.00
17309;BME280;8772;42.804;23.426;2022-10-16T06:00:55;95464.94;;;6.41;100.00
17309;BME280;8772;42.804;23.426;2022-10-16T06:03:22;95462.41;;;6.51;100.00
17309;BME280;8772;42.804;23.426;2022-10-16T06:05:49;95471.13;;;6.52;100.00
17309;BME280;8772;42.804;23.426;2022-10-16T06:08:16;95477.34;;;6.63;100.00
17309;BME280;8772;42.804;23.426;2022-10-16T06:10:43;95475.91;;;6.69;100.00
17309;BME280;8772;42.804;23.426;2022-10-16T06:13:12;95477.47;;;6.77;100.00
17309;BME280;8772;42.804;23.426;2022-10-16T06:15:39;95482.47;;;6.82;100.00
17309;BME280;8772;42.804;23.426;2022-10-16T06:18:07;95492.81;;;6.90;100.00
17309;BME280;8772;42.804;23.426;2022-10-16T06:20:35;95484.59;;;7.02;100.00
17309;BME280;8772;42.804;23.426;2022-10-16T06:23:02;95489.19;;;7.09;100.00
17309;BME280;8772;42.804;23.426;2022-10-16T06:25:29;95491.53;;;7.17;100.00
17309;BME280;8772;42.804;23.426;2022-10-16T06:27:56;95496.94;;;7.28;100.00
17309;BME280;8772;42.804;23.426;2022-10-16T06:30:25;95487.91;;;7.36;100.00
17309;BME280;8772;42.804;23.426;2022-10-16T06:32:52;95500.16;;;7.44;100.00
17309;BME280;8772;42.804;23.426;2022-10-16T06:35:19;95504.00;;;7.53;100.00
17309;BME280;8772;42.804;23.426;2022-10-16T06:37:46;95506.34;;;7.62;100.00
17309;BME280;8772;42.804;23.426;2022-10-16T06:40:13;95503.38;;;7.70;100.00
17309;BME280;8772;42.804;23.426;2022-10-16T06:42:40;95507.25;;;7.80;100.00
17309;BME280;8772;42.804;23.426;2022-10-16T06:45:08;95509.94;;;7.87;100.00
17309;BME280;8772;42.804;23.426;2022-10-16T06:47:37;95508.88;;;7.95;100.00
17309;BME280;8772;42.804;23.426;2022-10-16T06:50:04;95509.31;;;8.04;100.00
17309;BME280;8772;42.804;23.426;2022-10-16T06:52:33;95516.59;;;8.14;100.00
17309;BME280;8772;42.804;23.426;2022-10-16T06:55:00;95509.41;;;8.21;100.00
17309;BME280;8772;42.804;23.426;2022-10-16T06:57:28;95507.59;;;8.29;100.00
17309;BME280;8772;42.804;23.426;2022-10-16T06:59:55;95522.84;;;8.39;100.00
17309;BME280;8772;42.804;23.426;2022-10-16T07:02:22;95524.03;;;8.45;100.00
17309;BME280;8772;42.804;23.426;2022-10-16T07:04:50;95524.47;;;8.61;100.00
17309;BME280;8772;42.804;23.426;2022-10-16T07:07:17;95524.50;;;8.71;100.00
17309;BME280;8772;42.804;23.426;2022-10-16T07:09:43;95526.06;;;8.82;100.00
17309;BME280;8772;42.804;23.426;2022-10-16T07:12:10;95532.22;;;8.93;100.00
17309;BME280;8772;42.804;23.426;2022-10-16T07:14:37;95533.00;;;9.04;100.00
17309;BME280;8772;42.804;23.426;2022-10-16T07:17:04;95538.72;;;9.17;100.00
17309;BME280;8772;42.804;23.426;2022-10-16T07:19:31;95541.81;;;9.29;100.00
17309;BME280;8772;42.804;23.426;2022-10-16T07:21:59;95536.50;;;9.40;100.00
17309;BME280;8772;42.804;23.426;2022-10-16T07:24:26;95535.34;;;9.51;100.00
17309;BME280;8772;42.804;23.426;2022-10-16T07:26:53;95526.22;;;9.66;100.00
17309;BME280;8772;42.804;23.426;2022-10-16T07:29:21;95530.75;;;9.76;100.00
17309;BME280;8772;42.804;23.426;2022-10-16T07:31:48;95537.66;;;9.91;100.00
17309;BME280;8772;42.804;23.426;2022-10-16T07:34:17;95531.53;;;10.05;100.00
17309;BME280;8772;42.804;23.426;2022-10-16T07:36:46;95540.69;;;10.14;100.00
17309;BME280;8772;42.804;23.426;2022-10-16T07:39:15;95539.91;;;10.21;100.00
17309;BME280;8772;42.804;23.426;2022-10-16T07:41:42;95533.00;;;10.37;100.00
17309;BME280;8772;42.804;23.426;2022-10-16T07:44:09;95532.97;;;10.51;100.00
17309;BME280;8772;42.804;23.426;2022-10-16T07:46:36;95535.22;;;10.63;100.00
17309;BME280;8772;42.804;23.426;2022-10-16T07:49:03;95539.34;;;10.85;100.00
17309;BME280;8772;42.804;23.426;2022-10-16T07:51:30;95528.19;;;11.04;100.00
17309;BME280;8772;42.804;23.426;2022-10-16T07:53:57;95532.69;;;11.14;100.00
17309;BME280;8772;42.804;23.426;2022-10-16T07:56:25;95534.22;;;11.15;100.00
17309;BME280;8772;42.804;23.426;2022-10-16T07:58:52;95539.84;;;11.34;100.00
17309;BME280;8772;42.804;23.426;2022-10-16T08:01:19;95537.44;;;11.50;100.00
17309;BME280;8772;42.804;23.426;2022-10-16T08:03:48;95543.88;;;11.67;100.00
17309;BME280;8772;42.804;23.426;2022-10-16T08:06:15;95545.66;;;11.84;100.00
17309;BME280;8772;42.804;23.426;2022-10-16T08:08:42;95546.59;;;12.07;100.00
17309;BME280;8772;42.804;23.426;2022-10-16T08:11:09;95546.38;;;12.32;100.00
17309;BME280;8772;42.804;23.426;2022-10-16T08:13:37;95545.75;;;12.54;100.00
17309;BME280;8772;42.804;23.426;2022-10-16T08:16:05;95547.00;;;12.80;100.00
17309;BME280;8772;42.804;23.426;2022-10-16T08:18:34;95546.41;;;12.99;100.00
17309;BME280;8772;42.804;23.426;2022-10-16T08:21:01;95548.91;;;13.13;100.00
17309;BME280;8772;42.804;23.426;2022-10-16T08:23:28;95540.03;;;13.45;100.00
17309;BME280;8772;42.804;23.426;2022-10-16T08:25:56;95553.25;;;13.59;100.00
17309;BME280;8772;42.804;23.426;2022-10-16T08:28:27;95543.81;;;13.74;100.00
17309;BME280;8772;42.804;23.426;2022-10-16T08:30:56;95539.53;;;14.03;100.00
17309;BME280;8772;42.804;23.426;2022-10-16T08:33:30;95540.56;;;14.32;100.00
17309;BME280;8772;42.804;23.426;2022-10-16T08:35:57;95544.75;;;14.56;100.00
17309;BME280;8772;42.804;23.426;2022-10-16T08:38:24;95541.72;;;14.54;100.00
17309;BME280;8772;42.804;23.426;2022-10-16T08:40:51;95540.63;;;14.91;100.00
17309;BME280;8772;42.804;23.426;2022-10-16T08:43:33;95539.94;;;15.06;100.00
17309;BME280;8772;42.804;23.426;2022-10-16T08:46:24;95536.19;;;15.39;100.00
17309;BME280;8772;42.804;23.426;2022-10-16T08:48:57;95542.28;;;15.59;100.00
17309;BME280;8772;42.804;23.426;2022-10-16T08:51:27;95546.75;;;15.81;100.00
17309;BME280;8772;42.804;23.426;2022-10-16T08:53:56;95553.09;;;16.07;100.00
17309;BME280;8772;42.804;23.426;2022-10-16T08:56:25;95545.31;;;16.25;100.00
17309;BME280;8772;42.804;23.426;2022-10-16T08:58:52;95541.50;;;16.54;100.00
17309;BME280;8772;42.804;23.426;2022-10-16T09:01:23;95552.84;;;16.78;100.00
17309;BME280;8772;42.804;23.426;2022-10-16T09:04:09;95543.06;;;16.96;100.00
17309;BME280;8772;42.804;23.426;2022-10-16T09:06:47;95545.28;;;17.14;100.00
17309;BME280;8772;42.804;23.426;2022-10-16T09:09:33;95552.59;;;17.42;98.85
17309;BME280;8772;42.804;23.426;2022-10-16T09:12:11;95540.72;;;17.77;94.53
17309;BME280;8772;42.804;23.426;2022-10-16T09:14:47;95548.19;;;17.85;86.11
17309;BME280;8772;42.804;23.426;2022-10-16T09:17:30;95538.41;;;17.87;85.27
17309;BME280;8772;42.804;23.426;2022-10-16T09:20:12;95534.84;;;18.15;86.34
17309;BME280;8772;42.804;23.426;2022-10-16T09:22:40;95533.91;;;18.43;85.71
17309;BME280;8772;42.804;23.426;2022-10-16T09:25:12;95540.47;;;18.55;82.27
17309;BME280;8772;42.804;23.426;2022-10-16T09:27:40;95538.84;;;18.57;78.84
17309;BME280;8772;42.804;23.426;2022-10-16T09:30:12;95548.19;;;18.44;67.16
17309;BME280;8772;42.804;23.426;2022-10-16T09:32:42;95535.03;;;18.67;63.64
17309;BME280;8772;42.804;23.426;2022-10-16T09:35:14;95533.56;;;18.54;61.70
17309;BME280;8772;42.804;23.426;2022-10-16T09:37:43;95537.72;;;18.33;62.02
17309;BME280;8772;42.804;23.426;2022-10-16T09:40:24;95530.72;;;18.57;62.85
17309;BME280;8772;42.804;23.426;2022-10-16T09:42:56;95527.91;;;18.82;61.45
17309;BME280;8772;42.804;23.426;2022-10-16T09:45:24;95532.84;;;18.96;61.08
17309;BME280;8772;42.804;23.426;2022-10-16T09:47:53;95530.59;;;18.95;56.33
17309;BME280;8772;42.804;23.426;2022-10-16T09:50:22;95514.75;;;18.93;58.91
17309;BME280;8772;42.804;23.426;2022-10-16T09:52:50;95515.44;;;18.85;59.55
17309;BME280;8772;42.804;23.426;2022-10-16T09:55:18;95514.41;;;19.13;60.65
17309;BME280;8772;42.804;23.426;2022-10-16T09:57:51;95515.63;;;19.12;60.34
17309;BME280;8772;42.804;23.426;2022-10-16T10:00:19;95515.66;;;19.42;58.32
17309;BME280;8772;42.804;23.426;2022-10-16T10:02:46;95515.78;;;19.69;55.67
17309;BME280;8772;42.804;23.426;2022-10-16T10:05:20;95513.44;;;19.50;56.94
17309;BME280;8772;42.804;23.426;2022-10-16T10:07:54;95508.06;;;19.59;57.33
17309;BME280;8772;42.804;23.426;2022-10-16T10:10:23;95502.81;;;19.73;53.35
17309;BME280;8772;42.804;23.426;2022-10-16T10:12:51;95503.00;;;19.18;54.18
17309;BME280;8772;42.804;23.426;2022-10-16T10:15:18;95504.09;;;19.20;53.92
17309;BME280;8772;42.804;23.426;2022-10-16T10:17:48;95500.63;;;19.50;56.03
17309;BME280;8772;42.804;23.426;2022-10-16T10:20:23;95491.63;;;19.62;56.73
17309;BME280;8772;42.804;23.426;2022-10-16T10:22:51;95498.97;;;19.92;55.92
17309;BME280;8772;42.804;23.426;2022-10-16T10:25:35;95489.50;;;20.06;54.09
17309;BME280;8772;42.804;23.426;2022-10-16T10:31:11;95490.31;;;20.33;53.56
17309;BME280;8772;42.804;23.426;2022-10-16T10:33:44;95487.94;;;20.53;52.24
17309;BME280;8772;42.804;23.426;2022-10-16T10:36:25;95487.31;;;20.31;50.30
17309;BME280;8772;42.804;23.426;2022-10-16T10:38:57;95477.34;;;20.64;52.54
17309;BME280;8772;42.804;23.426;2022-10-16T10:44:44;95478.88;;;20.92;51.37
17309;BME280;8772;42.804;23.426;2022-10-16T10:47:18;95476.44;;;21.03;50.45
17309;BME280;8772;42.804;23.426;2022-10-16T10:49:57;95473.72;;;20.76;42.97
17309;BME280;8772;42.804;23.426;2022-10-16T10:52:42;95474.03;;;20.78;40.91
17309;BME280;8772;42.804;23.426;2022-10-16T10:55:19;95471.59;;;20.80;39.87
17309;BME280;8772;42.804;23.426;2022-10-16T10:58:04;95465.88;;;20.69;42.32
17309;BME280;8772;42.804;23.426;2022-10-16T11:00:42;95464.06;;;20.93;42.57
17309;BME280;8772;42.804;23.426;2022-10-16T11:03:26;95464.06;;;20.48;40.67
17309;BME280;8772;42.804;23.426;2022-10-16T11:05:59;95466.78;;;20.39;38.92
17309;BME280;8772;42.804;23.426;2022-10-16T11:08:35;95464.34;;;20.23;39.26
17309;BME280;8772;42.804;23.426;2022-10-16T11:11:08;95451.97;;;20.22;38.35
17309;BME280;8772;42.804;23.426;2022-10-16T11:13:40;95444.28;;;20.20;39.63
17309;BME280;8772;42.804;23.426;2022-10-16T11:16:14;95445.91;;;20.00;39.22
17309;BME280;8772;42.804;23.426;2022-10-16T11:18:49;95449.09;;;19.59;39.41
17309;BME280;8772;42.804;23.426;2022-10-16T11:21:19;95445.78;;;19.55;38.33
17309;BME280;8772;42.804;23.426;2022-10-16T11:23:53;95444.19;;;19.36;38.83
17309;BME280;8772;42.804;23.426;2022-10-16T11:26:25;95445.84;;;19.34;39.23
17309;BME280;8772;42.804;23.426;2022-10-16T11:28:54;95437.16;;;19.48;40.35
17309;BME280;8772;42.804;23.426;2022-10-16T11:31:28;95438.72;;;19.67;39.59
17309;BME280;8772;42.804;23.426;2022-10-16T11:34:02;95450.59;;;19.60;38.56
17309;BME280;8772;42.804;23.426;2022-10-16T11:36:34;95444.84;;;19.49;38.36
17309;BME280;8772;42.804;23.426;2022-10-16T11:39:12;95439.75;;;19.60;40.86
17309;BME280;8772;42.804;23.426;2022-10-16T11:41:48;95438.56;;;19.70;39.08
17309;BME280;8772;42.804;23.426;2022-10-16T11:44:33;95438.31;;;19.77;37.48
17309;BME280;8772;42.804;23.426;2022-10-16T11:47:08;95445.41;;;19.84;39.35
17309;BME280;8772;42.804;23.426;2022-10-16T11:49:37;95447.78;;;19.73;37.19
17309;BME280;8772;42.804;23.426;2022-10-16T11:52:11;95447.34;;;19.83;37.03
17309;BME280;8772;42.804;23.426;2022-10-16T11:54:47;95447.09;;;19.90;36.98
17309;BME280;8772;42.804;23.426;2022-10-16T11:57:19;95453.88;;;19.95;38.26
17309;BME280;8772;42.804;23.426;2022-10-16T11:59:50;95447.81;;;19.91;36.08
17309;BME280;8772;42.804;23.426;2022-10-16T12:02:33;95438.69;;;20.06;37.76
17309;BME280;8772;42.804;23.426;2022-10-16T12:05:13;95446.78;;;19.97;35.78
17309;BME280;8772;42.804;23.426;2022-10-16T12:07:49;95443.59;;;19.90;34.86
17309;BME280;8772;42.804;23.426;2022-10-16T12:10:24;95451.59;;;19.84;33.67
17309;BME280;8772;42.804;23.426;2022-10-16T12:12:52;95451.25;;;19.73;34.96
17309;BME280;8772;42.804;23.426;2022-10-16T12:15:22;95442.22;;;19.76;34.99
17309;BME280;8772;42.804;23.426;2022-10-16T12:17:50;95456.34;;;19.62;34.64
17309;BME280;8772;42.804;23.426;2022-10-16T12:20:24;95449.72;;;19.63;35.37
17309;BME280;8772;42.804;23.426;2022-10-16T12:22:54;95450.44;;;19.46;36.60
17309;BME280;8772;42.804;23.426;2022-10-16T12:25:26;95437.50;;;19.59;36.26
17309;BME280;8772;42.804;23.426;2022-10-16T12:27:59;95443.09;;;19.73;35.87
17309;BME280;8772;42.804;23.426;2022-10-16T12:30:28;95440.38;;;19.73;36.56
17309;BME280;8772;42.804;23.426;2022-10-16T12:32:57;95451.28;;;19.82;37.16
17309;BME280;8772;42.804;23.426;2022-10-16T12:35:26;95440.09;;;19.71;35.63
17309;BME280;8772;42.804;23.426;2022-10-16T12:37:54;95447.22;;;19.87;35.89
17309;BME280;8772;42.804;23.426;2022-10-16T12:40:34;95443.19;;;20.00;35.34
17309;BME280;8772;42.804;23.426;2022-10-16T12:43:13;95444.06;;;19.97;35.17
17309;BME280;8772;42.804;23.426;2022-10-16T12:45:59;95453.19;;;20.21;36.19
17309;BME280;8772;42.804;23.426;2022-10-16T12:48:26;95439.81;;;19.78;36.05
17309;BME280;8772;42.804;23.426;2022-10-16T12:50:53;95443.75;;;19.77;37.63
17309;BME280;8772;42.804;23.426;2022-10-16T12:53:22;95445.22;;;19.69;37.65
17309;BME280;8772;42.804;23.426;2022-10-16T12:56:01;95445.13;;;19.42;36.36
17309;BME280;8772;42.804;23.426;2022-10-16T12:58:57;95452.06;;;19.43;38.28
17309;BME280;8772;42.804;23.426;2022-10-16T13:01:36;95459.19;;;19.19;37.20
17309;BME280;8772;42.804;23.426;2022-10-16T13:04:27;95463.47;;;19.29;38.63
17309;BME280;8772;42.804;23.426;2022-10-16T13:07:05;95462.22;;;19.21;39.10
17309;BME280;8772;42.804;23.426;2022-10-16T13:09:46;95457.63;;;19.40;39.65
17309;BME280;8772;42.804;23.426;2022-10-16T13:12:33;95465.19;;;19.45;38.00
17309;BME280;8772;42.804;23.426;2022-10-16T13:15:16;95463.97;;;19.15;39.24
17309;BME280;8772;42.804;23.426;2022-10-16T13:17:53;95458.81;;;19.08;38.12
17309;BME280;8772;42.804;23.426;2022-10-16T13:20:31;95458.72;;;18.90;39.30
17309;BME280;8772;42.804;23.426;2022-10-16T13:23:09;95462.81;;;18.73;40.89
17309;BME280;8772;42.804;23.426;2022-10-16T13:25:49;95461.25;;;18.85;39.72